Time;durP1;ratioP1;P1;durP2;ratioP2;P2;SDS_P1;SDS_P2;PMS_P1;PMS_P2;Temp;Humidity;BMP_temperature;BMP_pressure;BME280_temperature;BME280_humidity;BME280_pressure;Samples;Min_cycle;Max_cycle;Signal;HPM_P1;HPM_P2
2022/11/12 00:00:26;;;;;;;9.13;7.57;;;10.90;99.90;;;;;;5094561;28;20039;-81
2022/11/12 00:02:51;;;;;;;8.65;7.75;;;11.10;99.90;;;;;;5095135;28;20032;-81
2022/11/12 00:05:17;;;;;;;8.90;8.02;;;11.00;99.90;;;;;;5094822;28;20050;-81
2022/11/12 00:07:42;;;;;;;8.77;7.57;;;10.80;99.90;;;;;;5095068;28;20024;-81
2022/11/12 00:10:09;;;;;;;8.35;7.53;;;11.00;99.90;;;;;;5095036;28;20107;-81
2022/11/12 00:12:34;;;;;;;8.93;7.57;;;10.90;99.90;;;;;;5094593;28;20085;-81
2022/11/12 00:15:00;;;;;;;8.55;7.60;;;10.90;99.90;;;;;;5094885;28;20074;-81
2022/11/12 00:17:25;;;;;;;9.13;7.80;;;10.90;99.90;;;;;;5094476;28;20103;-81
2022/11/12 00:19:52;;;;;;;8.90;7.47;;;10.90;99.90;;;;;;5094499;28;20034;-81
2022/11/12 00:22:19;;;;;;;11.52;8.10;;;10.80;99.90;;;;;;5094813;28;20061;-81
2022/11/12 00:24:44;;;;;;;9.32;8.18;;;11.30;99.90;;;;;;5094517;28;20032;-80
2022/11/12 00:27:11;;;;;;;9.07;8.00;;;10.90;99.90;;;;;;5094634;28;20040;-81
2022/11/12 00:29:37;;;;;;;9.10;7.88;;;10.90;99.90;;;;;;5095088;28;20366;-80
2022/11/12 00:32:05;;;;;;;10.82;7.93;;;10.90;99.90;;;;;;5094322;28;20473;-81
2022/11/12 00:34:31;;;;;;;8.90;8.00;;;10.80;99.90;;;;;;5093938;28;20102;-80
2022/11/12 00:36:57;;;;;;;9.32;8.00;;;11.00;99.90;;;;;;5094070;28;20069;-81
2022/11/12 00:39:22;;;;;;;10.02;7.75;;;11.20;99.90;;;;;;5094323;28;20051;-81
2022/11/12 00:41:48;;;;;;;9.18;8.20;;;10.90;99.90;;;;;;5094220;28;20081;-80
2022/11/12 00:44:14;;;;;;;10.90;8.10;;;10.80;99.90;;;;;;5094524;28;20477;-80
2022/11/12 00:46:39;;;;;;;9.38;8.05;;;10.80;99.90;;;;;;5093397;28;20036;-81
2022/11/12 00:49:05;;;;;;;9.88;8.23;;;10.70;99.90;;;;;;5093792;28;20056;-80
2022/11/12 00:51:30;;;;;;;12.05;8.15;;;10.70;99.90;;;;;;5094294;28;20057;-81
2022/11/12 00:53:56;;;;;;;11.02;8.35;;;10.70;99.90;;;;;;5094140;28;20028;-81
2022/11/12 00:56:21;;;;;;;10.25;9.18;;;10.70;99.90;;;;;;5093847;28;20036;-80
2022/11/12 00:58:47;;;;;;;12.75;9.45;;;10.70;99.90;;;;;;5093880;28;20484;-81
2022/11/12 01:01:14;;;;;;;11.35;10.02;;;10.60;99.90;;;;;;5093764;28;20765;-81
2022/11/12 01:03:41;;;;;;;11.13;9.88;;;10.60;99.90;;;;;;5094439;28;20024;-81
2022/11/12 01:06:15;;;;;;;11.02;9.55;;;10.50;99.90;;;;;;5094373;28;20032;-80
2022/11/12 01:08:41;;;;;;;10.20;9.02;;;10.50;99.90;;;;;;5094050;28;20030;-81
2022/11/12 01:11:22;;;;;;;10.55;9.38;;;10.50;99.90;;;;;;5075909;28;20028;-80
2022/11/12 01:13:59;;;;;;;9.90;8.90;;;10.50;99.90;;;;;;5093760;28;20059;-81
2022/11/12 01:16:28;;;;;;;11.63;9.32;;;10.50;99.90;;;;;;5093406;28;20028;-81
2022/11/12 01:18:56;;;;;;;12.13;9.25;;;10.50;99.90;;;;;;5093935;28;20032;-81
2022/11/12 01:21:24;;;;;;;10.98;8.82;;;10.50;99.90;;;;;;5093503;28;20453;-81
2022/11/12 01:23:50;;;;;;;9.95;8.95;;;10.50;99.90;;;;;;5093848;28;20042;-80
2022/11/12 01:26:18;;;;;;;11.95;9.38;;;10.50;99.90;;;;;;5093551;28;20544;-81
2022/11/12 01:28:44;;;;;;;13.57;9.73;;;10.40;99.90;;;;;;5093382;28;20107;-81
2022/11/12 01:31:17;;;;;;;11.75;9.65;;;10.80;99.90;;;;;;5092930;28;20051;-80
2022/11/12 01:33:44;;;;;;;10.52;9.20;;;10.40;99.90;;;;;;5093295;28;20476;-80
2022/11/12 01:36:12;;;;;;;10.60;9.60;;;10.40;99.90;;;;;;5093255;28;20044;-81
2022/11/12 01:38:39;;;;;;;10.38;9.25;;;10.40;99.90;;;;;;5093154;28;20488;-81
2022/11/12 01:41:11;;;;;;;11.88;8.70;;;10.40;99.90;;;;;;5093607;28;20408;-80
2022/11/12 01:43:36;;;;;;;12.30;8.93;;;10.30;99.90;;;;;;5093178;28;20485;-80
2022/11/12 01:46:12;;;;;;;10.40;9.15;;;10.30;99.90;;;;;;5092599;28;20027;-80
2022/11/12 01:49:05;;;;;;;13.85;9.40;;;10.30;99.90;;;;;;5092367;28;20024;-81
2022/11/12 01:51:35;;;;;;;10.02;8.77;;;10.30;99.90;;;;;;5088992;28;20380;-81
2022/11/12 01:54:05;;;;;;;11.45;9.32;;;10.30;99.90;;;;;;5092983;28;20088;-81
2022/11/12 01:56:31;;;;;;;12.23;9.90;;;10.30;99.90;;;;;;5092846;28;20027;-81
2022/11/12 01:59:06;;;;;;;13.05;9.20;;;10.40;99.90;;;;;;5093050;28;20032;-81
2022/11/12 02:01:34;;;;;;;11.20;9.90;;;10.50;99.90;;;;;;5092638;28;20035;-81
2022/11/12 02:04:00;;;;;;;13.38;9.68;;;10.70;99.90;;;;;;5093866;28;20396;-80
2022/11/12 02:06:26;;;;;;;11.35;9.98;;;10.60;99.90;;;;;;5092852;28;20028;-80
2022/11/12 02:08:52;;;;;;;12.00;9.35;;;10.20;99.90;;;;;;5093089;28;20085;-81
2022/11/12 02:11:20;;;;;;;10.68;9.57;;;10.10;99.90;;;;;;5092732;28;20063;-81
2022/11/12 02:14:00;;;;;;;12.35;9.75;;;10.10;99.90;;;;;;5092625;28;20099;-81
2022/11/12 02:16:47;;;;;;;11.05;9.77;;;10.10;99.90;;;;;;5092489;28;20043;-81
2022/11/12 02:19:14;;;;;;;12.13;9.82;;;10.10;99.90;;;;;;5072779;28;20036;-81
2022/11/12 02:21:41;;;;;;;11.90;9.20;;;10.00;99.90;;;;;;5072519;28;20075;-80
2022/11/12 02:24:12;;;;;;;10.23;9.15;;;10.00;99.90;;;;;;5072335;28;20021;-81
2022/11/12 02:26:43;;;;;;;11.45;9.30;;;10.00;99.90;;;;;;5072990;28;20032;-81
2022/11/12 02:29:09;;;;;;;11.13;9.27;;;10.40;99.90;;;;;;5072103;28;20063;-81
2022/11/12 02:31:35;;;;;;;10.75;9.32;;;10.00;99.90;;;;;;5073223;28;20029;-81
2022/11/12 02:34:01;;;;;;;9.77;8.77;;;10.00;99.90;;;;;;5092481;28;20024;-80
2022/11/12 02:36:27;;;;;;;12.57;8.57;;;10.30;99.90;;;;;;5092152;28;20462;-80
2022/11/12 02:38:52;;;;;;;11.70;8.55;;;10.00;99.90;;;;;;5092953;28;20569;-81
2022/11/12 02:41:18;;;;;;;9.60;8.40;;;10.00;99.90;;;;;;5092539;28;20032;-80
2022/11/12 02:43:44;;;;;;;9.52;7.95;;;10.00;99.90;;;;;;5092365;28;20045;-80
2022/11/12 02:46:09;;;;;;;8.32;7.47;;;10.00;99.90;;;;;;5092758;28;20487;-81
2022/11/12 02:48:35;;;;;;;11.05;7.97;;;10.00;99.90;;;;;;5092572;28;20511;-81
2022/11/12 02:51:01;;;;;;;9.93;8.35;;;10.30;99.90;;;;;;5092430;28;20028;-80
2022/11/12 02:53:26;;;;;;;9.23;8.15;;;10.00;99.90;;;;;;5092669;28;20024;-81
2022/11/12 02:55:52;;;;;;;9.18;8.27;;;10.00;99.90;;;;;;5074370;28;20024;-80
2022/11/12 02:58:18;;;;;;;9.85;8.80;;;10.00;99.90;;;;;;5092505;28;20089;-80
2022/11/12 03:00:43;;;;;;;10.52;8.85;;;10.00;99.90;;;;;;5095931;28;20032;-80
2022/11/12 03:03:09;;;;;;;10.25;8.73;;;9.90;99.90;;;;;;5096194;28;20024;-80
2022/11/12 03:05:35;;;;;;;12.40;9.50;;;10.00;99.90;;;;;;5096144;28;20506;-81
2022/11/12 03:08:06;;;;;;;11.10;9.48;;;10.30;99.90;;;;;;5096106;28;20028;-80
2022/11/12 03:10:32;;;;;;;11.68;9.82;;;10.00;99.90;;;;;;5096323;28;20059;-80
2022/11/12 03:13:00;;;;;;;10.80;9.70;;;10.00;99.90;;;;;;5095723;28;20032;-80
2022/11/12 03:15:27;;;;;;;11.52;9.80;;;9.90;99.90;;;;;;5096421;28;20032;-80
2022/11/12 03:17:53;;;;;;;10.65;9.55;;;9.90;99.90;;;;;;5095941;28;20144;-80
2022/11/12 03:20:19;;;;;;;12.52;10.65;;;10.20;99.90;;;;;;5095681;28;20118;-81
2022/11/12 03:23:06;;;;;;;13.05;10.57;;;9.90;99.90;;;;;;5095856;28;20445;-80
2022/11/12 03:25:32;;;;;;;13.68;10.75;;;9.90;99.90;;;;;;5095956;28;20050;-80
2022/11/12 03:27:59;;;;;;;13.70;11.18;;;9.90;99.90;;;;;;5095202;28;20036;-81
2022/11/12 03:30:26;;;;;;;12.50;11.18;;;9.90;99.90;;;;;;5095592;28;20028;-81
2022/11/12 03:32:52;;;;;;;12.70;10.45;;;9.90;99.90;;;;;;5095347;28;20392;-81
2022/11/12 03:35:18;;;;;;;16.60;11.52;;;10.10;99.90;;;;;;5095365;28;20043;-80
2022/11/12 03:37:43;;;;;;;12.07;10.50;;;9.80;99.90;;;;;;5095261;28;20016;-80
2022/11/12 03:40:09;;;;;;;14.13;11.25;;;9.80;99.90;;;;;;5095246;28;20028;-81
2022/11/12 03:42:35;;;;;;;13.35;10.75;;;9.80;99.90;;;;;;5076745;28;20035;-81
2022/11/12 03:45:01;;;;;;;14.57;11.20;;;9.80;99.90;;;;;;5095223;28;20021;-80
2022/11/12 03:47:26;;;;;;;15.32;11.77;;;9.70;99.90;;;;;;5095578;28;20032;-80
2022/11/12 03:49:52;;;;;;;13.95;11.13;;;9.70;99.90;;;;;;5095839;28;20016;-80
2022/11/12 03:52:17;;;;;;;12.18;10.93;;;10.20;99.90;;;;;;5095908;28;20525;-81
2022/11/12 03:54:43;;;;;;;12.95;10.18;;;9.70;99.90;;;;;;5095621;28;20028;-81
2022/11/12 03:57:08;;;;;;;12.80;11.20;;;10.10;99.90;;;;;;5095226;28;20024;-81
2022/11/12 03:59:34;;;;;;;11.63;10.25;;;9.70;99.90;;;;;;5095334;28;20544;-81
2022/11/12 04:02:00;;;;;;;13.43;9.52;;;9.70;99.90;;;;;;5094991;28;20040;-81
2022/11/12 04:08:34;;;;;;;12.98;9.65;;;9.70;99.90;;;;;;5095109;28;20388;-80
2022/11/12 04:09:55;;;;;;;11.65;9.02;;;9.90;99.90;;;;;;5094131;28;20549;-81
2022/11/12 04:15:05;;;;;;;9.98;8.88;;;10.10;99.90;;;;;;5094812;28;20035;-80
2022/11/12 04:22:59;;;;;;;11.55;9.80;;;9.60;99.90;;;;;;5094526;28;20042;-80
2022/11/12 04:28:08;;;;;;;11.98;8.65;;;9.90;99.90;;;;;;5094655;28;20051;-81
2022/11/12 04:30:34;;;;;;;10.02;8.68;;;9.50;99.90;;;;;;5094416;28;20480;-80
2022/11/12 04:33:00;;;;;;;12.15;9.15;;;9.60;99.90;;;;;;5094416;28;20483;-80
2022/11/12 04:35:26;;;;;;;10.23;9.05;;;9.50;99.90;;;;;;5094391;28;20060;-80
2022/11/12 04:37:52;;;;;;;10.75;9.32;;;9.50;99.90;;;;;;5094647;28;20026;-80
2022/11/12 04:46:01;;;;;;;10.32;9.15;;;9.50;99.90;;;;;;5094295;28;20039;-80
2022/11/12 04:48:27;;;;;;;10.13;8.43;;;9.50;99.90;;;;;;5094503;28;20012;-80
2022/11/12 04:50:56;;;;;;;10.68;8.85;;;9.60;99.90;;;;;;5094174;28;20388;-80
2022/11/12 04:53:22;;;;;;;10.25;9.05;;;9.70;99.90;;;;;;5093759;28;20020;-80
2022/11/12 04:55:52;;;;;;;11.57;9.10;;;9.50;99.90;;;;;;5094195;28;20038;-80
2022/11/12 04:58:20;;;;;;;11.93;9.30;;;9.80;99.90;;;;;;5093907;28;20027;-80
2022/11/12 05:00:46;;;;;;;11.30;9.23;;;9.50;99.90;;;;;;5094154;28;20032;-80
2022/11/12 05:03:11;;;;;;;13.43;9.25;;;9.50;99.90;;;;;;5093767;28;20024;-81
2022/11/12 05:05:37;;;;;;;10.32;9.02;;;9.50;99.90;;;;;;5093866;28;20500;-81
2022/11/12 05:08:03;;;;;;;10.35;8.90;;;9.40;99.90;;;;;;5093870;28;20464;-80
2022/11/12 05:10:30;;;;;;;9.55;8.63;;;9.50;99.90;;;;;;5094090;28;20035;-81
2022/11/12 05:12:56;;;;;;;9.32;8.30;;;9.50;99.90;;;;;;5093841;28;20024;-80
2022/11/12 05:15:22;;;;;;;11.05;9.50;;;9.40;99.90;;;;;;5093571;28;20048;-80
2022/11/12 05:17:48;;;;;;;9.73;8.70;;;9.40;99.90;;;;;;5093373;28;20056;-80
2022/11/12 05:20:14;;;;;;;10.52;8.80;;;9.40;99.90;;;;;;5093540;28;20384;-80
2022/11/12 05:22:39;;;;;;;11.00;8.85;;;9.40;99.90;;;;;;5093392;28;20039;-80
2022/11/12 05:25:06;;;;;;;11.95;8.05;;;9.40;99.90;;;;;;5093214;28;20103;-80
2022/11/12 05:27:32;;;;;;;9.88;8.68;;;9.40;99.90;;;;;;5093408;28;20062;-80
2022/11/12 05:29:58;;;;;;;12.40;8.40;;;9.30;99.90;;;;;;5093317;28;20028;-81
2022/11/12 05:32:24;;;;;;;9.75;7.93;;;9.30;99.90;;;;;;5093143;28;20491;-80
2022/11/12 05:34:49;;;;;;;10.73;8.55;;;9.30;99.90;;;;;;5093240;28;20039;-80
2022/11/12 05:37:15;;;;;;;9.52;8.40;;;9.30;99.90;;;;;;5092974;28;20462;-81
2022/11/12 05:39:41;;;;;;;11.63;8.68;;;9.30;99.90;;;;;;5093008;28;20035;-80
2022/11/12 05:42:07;;;;;;;9.85;8.50;;;9.30;99.90;;;;;;5093709;28;20067;-80
2022/11/12 05:44:33;;;;;;;9.43;8.43;;;9.30;99.90;;;;;;5093233;28;20032;-80
2022/11/12 05:46:59;;;;;;;9.57;8.35;;;9.60;99.90;;;;;;5093588;28;20032;-80
2022/11/12 05:49:25;;;;;;;9.68;8.65;;;9.20;99.90;;;;;;5093302;28;20035;-80
2022/11/12 05:51:50;;;;;;;9.65;8.30;;;9.60;99.90;;;;;;5092691;28;20107;-80
2022/11/12 05:54:17;;;;;;;10.88;9.02;;;9.20;99.90;;;;;;5093007;28;20441;-80
2022/11/12 05:56:43;;;;;;;10.40;8.88;;;9.20;99.90;;;;;;5093201;28;20141;-80
2022/11/12 05:59:11;;;;;;;10.43;9.32;;;9.50;99.90;;;;;;5092780;28;20032;-80
2022/11/12 06:01:42;;;;;;;13.13;10.07;;;9.10;99.90;;;;;;5092722;28;20067;-81
2022/11/12 06:04:13;;;;;;;12.43;9.32;;;9.40;99.90;;;;;;5092933;28;20024;-81
2022/11/12 06:06:40;;;;;;;12.15;10.15;;;9.10;99.90;;;;;;5092610;28;20119;-81
2022/11/12 06:09:06;;;;;;;13.05;10.13;;;9.10;99.90;;;;;;5093001;28;20507;-81
2022/11/12 06:11:32;;;;;;;10.95;9.65;;;9.10;99.90;;;;;;5093016;28;20465;-80
2022/11/12 06:13:58;;;;;;;15.52;10.02;;;9.10;99.90;;;;;;5093178;28;20114;-80
2022/11/12 06:16:24;;;;;;;12.20;10.02;;;9.10;99.90;;;;;;5092681;28;20028;-80
2022/11/12 06:18:50;;;;;;;11.43;9.82;;;9.10;99.90;;;;;;5092756;28;20031;-80
2022/11/12 06:21:18;;;;;;;11.27;9.30;;;9.00;99.90;;;;;;5092165;28;20077;-81
2022/11/12 06:23:44;;;;;;;11.13;9.43;;;9.00;99.90;;;;;;5092756;28;20027;-80
2022/11/12 06:26:10;;;;;;;11.95;9.27;;;9.10;99.90;;;;;;5093105;28;20028;-80
2022/11/12 06:28:36;;;;;;;11.77;9.48;;;9.00;99.90;;;;;;5092767;28;20031;-81
2022/11/12 06:31:01;;;;;;;13.50;9.45;;;9.50;99.90;;;;;;5093077;28;20028;-80
2022/11/12 06:33:27;;;;;;;11.45;9.48;;;9.00;99.90;;;;;;5093541;28;20468;-81
2022/11/12 06:36:01;;;;;;;11.70;9.13;;;9.00;99.90;;;;;;5096471;28;20052;-81
2022/11/12 06:38:35;;;;;;;11.50;9.13;;;9.00;99.90;;;;;;5096797;28;20020;-80
2022/11/12 06:41:02;;;;;;;10.70;9.20;;;9.00;99.90;;;;;;5096390;28;20127;-81
2022/11/12 06:43:29;;;;;;;10.70;8.57;;;9.10;99.90;;;;;;5095881;28;20073;-80
2022/11/12 06:46:02;;;;;;;11.18;9.00;;;9.10;99.90;;;;;;5096696;28;20107;-81
2022/11/12 06:48:28;;;;;;;9.88;8.30;;;9.10;99.90;;;;;;5096559;28;20434;-80
2022/11/12 06:50:55;;;;;;;10.32;8.35;;;9.50;99.90;;;;;;5095758;28;20511;-80
2022/11/12 06:53:21;;;;;;;12.93;8.65;;;9.20;99.90;;;;;;5096198;28;20024;-80
2022/11/12 06:55:47;;;;;;;10.45;8.95;;;9.30;99.90;;;;;;5096291;28;20024;-80
2022/11/12 06:58:12;;;;;;;10.77;8.20;;;9.50;99.90;;;;;;5096150;28;20021;-81
2022/11/12 07:00:38;;;;;;;11.60;9.10;;;9.40;99.90;;;;;;5095890;28;20020;-81
2022/11/12 07:03:08;;;;;;;12.35;9.00;;;9.60;99.90;;;;;;5095897;28;20039;-80
2022/11/12 07:05:37;;;;;;;9.55;8.38;;;9.90;99.90;;;;;;5095566;28;20515;-81
2022/11/12 07:08:04;;;;;;;11.35;8.40;;;9.60;99.90;;;;;;5095844;28;20120;-81
2022/11/12 07:10:30;;;;;;;10.13;8.52;;;9.70;99.90;;;;;;5095849;28;20103;-80
2022/11/12 07:12:55;;;;;;;10.52;8.07;;;10.00;99.90;;;;;;5095766;28;20444;-81
2022/11/12 07:15:21;;;;;;;9.80;8.75;;;9.80;99.90;;;;;;5095651;28;20085;-81
2022/11/12 07:17:46;;;;;;;10.73;8.50;;;10.00;99.90;;;;;;5095525;28;20093;-81
2022/11/12 07:20:12;;;;;;;10.30;8.30;;;10.00;99.90;;;;;;5095205;28;20122;-81
2022/11/12 07:22:38;;;;;;;10.65;8.40;;;10.10;99.90;;;;;;5095631;28;20028;-81
2022/11/12 07:25:04;;;;;;;8.93;8.02;;;10.50;99.90;;;;;;5095565;28;20035;-80
2022/11/12 07:27:30;;;;;;;9.30;8.30;;;10.30;99.90;;;;;;5095397;28;20486;-81
2022/11/12 07:29:56;;;;;;;9.90;7.82;;;10.30;99.90;;;;;;5095390;28;20031;-81
2022/11/12 07:32:21;;;;;;;8.98;8.07;;;10.60;99.90;;;;;;5095185;28;20488;-81
2022/11/12 07:34:47;;;;;;;10.23;7.68;;;10.50;99.90;;;;;;5094911;28;20720;-81
2022/11/12 07:37:12;;;;;;;10.32;7.93;;;10.90;99.90;;;;;;5095261;28;20512;-81
2022/11/12 07:39:38;;;;;;;8.68;7.78;;;10.90;99.90;;;;;;5095246;28;20032;-81
2022/11/12 07:42:04;;;;;;;9.05;7.32;;;10.90;99.90;;;;;;5095347;28;20032;-81
2022/11/12 07:44:29;;;;;;;9.75;7.90;;;11.10;99.90;;;;;;5094695;28;20476;-81
2022/11/12 07:46:55;;;;;;;8.38;7.40;;;11.20;99.90;;;;;;5094313;28;20153;-81
2022/11/12 07:49:20;;;;;;;10.48;7.80;;;11.30;99.90;;;;;;5094764;28;20088;-81
2022/11/12 07:51:46;;;;;;;8.88;7.40;;;11.50;99.90;;;;;;5094953;28;20423;-81
2022/11/12 07:54:12;;;;;;;8.68;7.78;;;11.80;99.90;;;;;;5095065;28;20169;-81
2022/11/12 07:56:38;;;;;;;11.40;7.68;;;11.90;99.90;;;;;;5094834;28;20024;-81
2022/11/12 07:59:04;;;;;;;8.32;7.53;;;12.40;99.90;;;;;;5094892;28;20107;-81
2022/11/12 08:01:36;;;;;;;8.10;7.30;;;12.50;99.90;;;;;;5094803;28;20043;-81
2022/11/12 08:04:04;;;;;;;8.25;7.38;;;13.20;99.90;;;;;;5094680;28;20506;-81
2022/11/12 08:06:31;;;;;;;10.57;7.18;;;13.00;99.90;;;;;;5094764;28;20024;-81
2022/11/12 08:08:59;;;;;;;12.48;8.05;;;13.30;99.90;;;;;;5094678;28;20024;-81
2022/11/12 08:11:25;;;;;;;10.75;7.30;;;13.70;99.90;;;;;;5094616;28;20565;-81
2022/11/12 08:13:51;;;;;;;8.80;7.85;;;14.00;99.90;;;;;;5093386;28;20391;-81
2022/11/12 08:16:17;;;;;;;9.32;7.82;;;13.80;99.90;;;;;;5094131;28;20032;-80
2022/11/12 08:18:44;;;;;;;8.52;7.55;;;13.90;99.90;;;;;;5094369;28;20032;-81
2022/11/12 08:21:13;;;;;;;10.02;8.25;;;14.10;99.90;;;;;;5094317;28;20122;-81
2022/11/12 08:23:39;;;;;;;9.18;7.93;;;14.00;99.90;;;;;;5094436;28;20035;-81
2022/11/12 08:26:07;;;;;;;11.30;8.25;;;14.00;99.90;;;;;;5094430;28;20034;-81
2022/11/12 08:28:35;;;;;;;11.60;8.35;;;14.40;99.90;;;;;;5094189;28;20020;-81
2022/11/12 08:31:06;;;;;;;10.23;9.20;;;14.60;99.90;;;;;;5093936;28;20099;-81
2022/11/12 08:33:32;;;;;;;9.05;8.15;;;14.80;99.90;;;;;;5094178;28;20046;-81
2022/11/12 08:36:00;;;;;;;11.35;9.15;;;14.90;99.90;;;;;;5093956;28;20040;-81
2022/11/12 08:38:26;;;;;;;11.02;8.98;;;15.20;99.90;;;;;;5094044;28;20024;-81
2022/11/12 08:40:51;;;;;;;10.80;9.18;;;15.40;99.90;;;;;;5093880;28;20065;-81
2022/11/12 08:43:17;;;;;;;10.32;9.23;;;15.70;99.90;;;;;;5094020;28;20095;-81
2022/11/12 08:45:43;;;;;;;10.98;9.13;;;15.80;99.90;;;;;;5093650;28;20035;-80
2022/11/12 08:48:14;;;;;;;12.82;9.88;;;15.90;99.90;;;;;;5094045;28;20494;-81
2022/11/12 08:50:41;;;;;;;12.18;9.52;;;15.90;99.90;;;;;;5093869;28;20016;-81
2022/11/12 08:53:11;;;;;;;11.82;9.00;;;15.90;99.90;;;;;;5093854;28;20046;-81
2022/11/12 08:55:37;;;;;;;10.90;9.80;;;16.60;99.90;;;;;;5093818;28;20031;-81
2022/11/12 08:58:04;;;;;;;12.00;9.20;;;17.00;99.90;;;;;;5093515;28;20480;-81
2022/11/12 09:00:35;;;;;;;10.82;9.73;;;17.70;99.90;;;;;;5093270;28;20031;-81
2022/11/12 09:03:02;;;;;;;11.23;10.07;;;18.00;99.90;;;;;;5093485;28;20099;-81
2022/11/12 09:05:28;;;;;;;10.80;9.35;;;17.90;99.90;;;;;;5093757;28;20020;-81
2022/11/12 09:08:03;;;;;;;10.85;9.13;;;18.50;99.90;;;;;;5093555;28;20031;-81
2022/11/12 09:10:29;;;;;;;11.63;9.18;;;20.00;99.90;;;;;;5093477;28;20545;-81
2022/11/12 09:12:54;;;;;;;12.07;9.68;;;20.30;99.90;;;;;;5093469;28;20028;-81
2022/11/12 09:15:22;;;;;;;11.77;10.00;;;21.10;99.90;;;;;;5093015;28;20078;-81
2022/11/12 09:17:53;;;;;;;9.98;8.98;;;21.60;99.90;;;;;;5093139;28;20036;-81
2022/11/12 09:20:19;;;;;;;11.80;9.07;;;22.30;99.90;;;;;;5093207;28;20032;-81
2022/11/12 09:22:44;;;;;;;10.70;8.50;;;22.30;99.90;;;;;;5093340;28;20085;-81
2022/11/12 09:25:10;;;;;;;10.15;9.13;;;23.10;99.90;;;;;;5093229;28;20024;-81
2022/11/12 09:27:36;;;;;;;12.82;9.13;;;23.60;99.90;;;;;;5093154;28;20052;-81
2022/11/12 09:30:01;;;;;;;10.52;9.43;;;25.10;99.90;;;;;;5092903;28;20024;-81
2022/11/12 09:32:27;;;;;;;9.43;8.43;;;25.30;99.90;;;;;;5093054;28;20103;-82
2022/11/12 09:34:52;;;;;;;9.27;8.18;;;25.90;99.90;;;;;;5092888;28;20032;-82
2022/11/12 09:37:18;;;;;;;10.77;8.52;;;25.60;99.90;;;;;;5092994;28;20181;-82
2022/11/12 09:39:43;;;;;;;9.60;8.70;;;25.70;99.90;;;;;;5092885;28;20141;-82
2022/11/12 09:42:14;;;;;;;10.30;9.00;;;24.90;99.90;;;;;;5093030;28;20043;-81
2022/11/12 09:44:43;;;;;;;9.57;8.65;;;26.30;99.90;;;;;;5092669;28;20077;-82
2022/11/12 09:47:19;;;;;;;9.32;8.43;;;25.90;99.90;;;;;;5092853;28;20085;-82
2022/11/12 09:49:56;;;;;;;9.80;8.85;;;27.30;99.90;;;;;;5092746;28;20028;-82
2022/11/12 09:52:27;;;;;;;9.38;8.48;;;26.80;99.90;;;;;;5092775;28;20032;-82
2022/11/12 09:55:16;;;;;;;8.95;8.15;;;27.40;99.90;;;;;;5093004;28;20043;-82
2022/11/12 09:57:42;;;;;;;9.57;8.32;;;27.60;99.90;;;;;;5092425;28;20028;-82
2022/11/12 10:00:18;;;;;;;10.30;8.38;;;27.40;99.90;;;;;;5092716;28;20035;-82
2022/11/12 10:03:06;;;;;;;9.48;8.48;;;27.50;99.90;;;;;;5092820;28;20488;-81
2022/11/12 10:05:32;;;;;;;8.90;7.95;;;26.40;99.90;;;;;;5092784;28;20024;-82
2022/11/12 10:08:33;;;;;;;8.60;7.85;;;26.20;99.90;;;;;;5092108;28;20074;-82
2022/11/12 10:12:30;;;;;;;8.95;8.15;;;25.80;99.90;;;;;;5092607;28;20108;-82
2022/11/12 10:14:58;;;;;;;9.95;7.68;;;25.90;99.90;;;;;;5092191;28;20062;-81
2022/11/12 10:17:34;;;;;;;8.68;7.88;;;27.00;99.90;;;;;;5010321;28;20040;-82
2022/11/12 10:20:15;;;;;;;8.85;7.95;;;27.30;99.90;;;;;;5010720;28;20108;-82
2022/11/12 10:23:11;;;;;;;8.60;7.80;;;28.90;99.90;;;;;;5010404;28;20045;-82
2022/11/12 10:25:39;;;;;;;8.88;7.38;;;28.10;99.90;;;;;;5010639;28;20530;-82
2022/11/12 10:28:35;;;;;;;8.18;7.38;;;28.20;99.90;;;;;;5010089;28;20391;-82
2022/11/12 10:31:10;;;;;;;7.90;7.20;;;28.10;99.90;;;;;;5000380;28;20093;-82
2022/11/12 10:33:36;;;;;;;8.30;7.43;;;28.20;99.90;;;;;;5010268;28;20030;-82
2022/11/12 10:36:23;;;;;;;8.48;7.68;;;28.80;99.90;;;;;;5010343;28;20057;-82
2022/11/12 10:38:52;;;;;;;12.70;8.30;;;29.30;99.90;;;;;;5010487;28;20126;-82
2022/11/12 10:41:27;;;;;;;9.73;8.82;;;29.70;99.90;;;;;;5009747;28;20049;-83
2022/11/12 10:44:00;;;;;;;8.35;7.55;;;29.90;99.90;;;;;;5010339;28;20022;-82
2022/11/12 10:46:37;;;;;;;7.68;6.97;;;30.50;99.90;;;;;;5010189;28;20030;-81
2022/11/12 10:49:02;;;;;;;9.00;8.18;;;30.00;99.90;;;;;;5010355;28;20105;-82
2022/11/12 10:51:32;;;;;;;9.40;8.60;;;29.40;99.90;;;;;;5010225;28;20113;-82
2022/11/12 10:53:58;;;;;;;10.00;9.00;;;30.40;99.90;;;;;;5039483;28;20032;-82
2022/11/12 10:56:30;;;;;;;9.30;8.38;;;30.70;99.90;;;;;;5071708;28;20025;-79
2022/11/12 10:59:16;;;;;;;9.63;8.63;;;31.10;99.90;;;;;;5072034;28;20497;-79
2022/11/12 11:01:44;;;;;;;8.65;7.85;;;31.20;99.90;;;;;;5071833;28;20087;-80
2022/11/12 11:04:33;;;;;;;8.75;7.88;;;31.00;99.90;;;;;;5071955;28;20024;-80
2022/11/12 11:07:23;;;;;;;9.30;8.40;;;31.60;99.90;;;;;;5071898;28;20112;-79
2022/11/12 11:09:57;;;;;;;10.75;9.73;;;32.20;99.90;;;;;;5071818;28;20032;-80
2022/11/12 11:12:32;;;;;;;15.77;14.10;;;30.50;99.90;;;;;;5071511;28;20481;-80
2022/11/12 11:15:27;;;;;;;11.15;10.15;;;31.30;99.90;;;;;;5071841;28;20031;-80
2022/11/12 11:17:53;;;;;;;10.68;9.57;;;32.10;99.90;;;;;;5083078;28;20416;-80
2022/11/12 11:20:28;;;;;;;10.02;8.93;;;31.70;99.90;;;;;;5093733;28;20032;-80
2022/11/12 11:23:16;;;;;;;8.93;8.02;;;31.40;99.90;;;;;;5095746;28;20028;-80
2022/11/12 11:25:42;;;;;;;8.35;7.25;;;30.90;99.90;;;;;;5095136;28;20028;-79
2022/11/12 11:28:24;;;;;;;8.60;7.82;;;32.30;99.90;;;;;;5095534;28;20149;-79
2022/11/12 11:30:56;;;;;;;8.00;7.18;;;32.70;99.90;;;;;;5095375;28;20051;-80
2022/11/12 11:33:31;;;;;;;8.20;7.50;;;32.70;99.90;;;;;;5095260;28;20020;-79
2022/11/12 11:36:15;;;;;;;7.82;7.13;;;32.20;99.90;;;;;;5095208;28;20092;-80
2022/11/12 11:38:58;;;;;;;7.85;7.22;;;32.10;99.90;;;;;;5095286;28;20035;-80
2022/11/12 11:41:29;;;;;;;7.63;6.93;;;32.40;99.90;;;;;;5094830;28;20032;-80
2022/11/12 11:44:07;;;;;;;7.18;6.57;;;32.10;99.90;;;;;;5095177;28;20488;-80
2022/11/12 11:46:58;;;;;;;7.50;6.57;;;32.90;99.90;;;;;;5095146;28;20024;-80
2022/11/12 11:49:32;;;;;;;7.47;6.63;;;31.90;99.90;;;;;;5095130;28;20024;-79
2022/11/12 11:52:12;;;;;;;6.70;6.05;;;32.00;99.90;;;;;;5095063;28;20482;-80
2022/11/12 11:55:17;;;;;;;7.80;6.10;;;31.40;99.90;;;;;;5094542;28;20020;-80
2022/11/12 11:58:01;;;;;;;6.05;5.45;;;31.10;99.90;;;;;;5094856;28;20032;-80
2022/11/12 12:00:55;;;;;;;7.18;5.93;;;31.00;99.90;;;;;;5094794;28;20042;-80
2022/11/12 12:03:25;;;;;;;6.00;5.40;;;31.40;99.90;;;;;;5094919;28;20095;-80
2022/11/12 12:06:16;;;;;;;6.10;5.53;;;30.40;99.90;;;;;;5094804;28;20051;-80
2022/11/12 12:08:57;;;;;;;5.70;5.20;;;31.80;99.90;;;;;;5094424;28;20024;-80
2022/11/12 12:11:34;;;;;;;6.30;5.55;;;33.10;99.90;;;;;;5094708;28;20024;-80
2022/11/12 12:14:06;;;;;;;6.00;4.95;;;33.40;99.90;;;;;;5094689;28;20023;-79
2022/11/12 12:16:51;;;;;;;4.68;4.28;;;34.20;99.90;;;;;;5094498;28;20032;-80
2022/11/12 12:19:35;;;;;;;5.45;4.72;;;35.00;99.90;;;;;;5094484;28;20025;-80
2022/11/12 12:22:06;;;;;;;6.22;5.25;;;35.90;99.90;;;;;;5094420;28;20032;-80
2022/11/12 12:24:39;;;;;;;5.72;5.22;;;35.70;99.90;;;;;;5094034;28;20028;-80
2022/11/12 12:27:19;;;;;;;5.15;4.60;;;34.90;99.90;;;;;;5094399;28;20022;-80
2022/11/12 12:29:52;;;;;;;5.35;4.53;;;34.90;99.90;;;;;;5094066;28;20523;-80
2022/11/12 12:32:51;;;;;;;4.88;4.47;;;34.50;99.90;;;;;;5093530;28;20020;-80
2022/11/12 12:35:29;;;;;;;5.50;4.40;;;34.30;99.90;;;;;;5093992;28;20488;-80
2022/11/12 12:38:19;;;;;;;4.78;4.10;;;33.90;99.90;;;;;;5093752;28;20365;-80
2022/11/12 12:41:00;;;;;;;5.22;4.30;;;33.00;99.90;;;;;;5093933;28;20032;-80
2022/11/12 12:43:31;;;;;;;5.18;4.50;;;32.80;99.90;;;;;;5094164;28;20036;-80
2022/11/12 12:45:57;;;;;;;5.15;4.63;;;32.10;99.90;;;;;;5094039;28;20125;-80
2022/11/12 12:48:27;;;;;;;4.50;4.10;;;32.00;99.90;;;;;;5094003;28;20409;-80
2022/11/12 12:50:53;;;;;;;4.88;4.35;;;31.80;99.90;;;;;;5093796;28;20494;-80
2022/11/12 12:53:21;;;;;;;4.78;4.38;;;30.70;99.90;;;;;;5093609;28;20036;-80
2022/11/12 12:56:04;;;;;;;4.65;4.10;;;28.60;99.90;;;;;;5093837;28;20020;-80
2022/11/12 12:58:42;;;;;;;4.03;3.72;;;26.70;99.90;;;;;;5093684;28;20574;-80
2022/11/12 13:01:27;;;;;;;4.30;3.90;;;26.30;99.90;;;;;;5093519;28;20461;-80
2022/11/12 13:04:01;;;;;;;5.00;4.25;;;26.80;99.90;;;;;;5093636;28;20036;-80
2022/11/12 13:06:44;;;;;;;4.13;3.80;;;25.60;99.90;;;;;;5093239;28;20111;-80
2022/11/12 13:09:13;;;;;;;4.50;4.10;;;26.00;99.90;;;;;;5093509;28;20126;-80
2022/11/12 13:14:35;;;;;;;5.15;4.10;;;24.70;99.90;;;;;;5093461;28;20039;-79
2022/11/12 13:17:15;;;;;;;4.43;3.97;;;24.90;99.90;;;;;;5093113;28;20028;-79
2022/11/12 13:19:53;;;;;;;3.72;3.42;;;25.80;99.90;;;;;;5093378;28;20102;-80